Bison, SD (57620)

10:06 PM MST on February 07, 2016 (GMT -0700)
Hettinger Municipal | | Change Station
CLOSE
Current Station
Airport
Location: Hettinger,
Elevation: 2703 ft
Nearby Weather Stations

Elev 2703 ft 46.01 °N, 102.66 °W | Updated 13 minutes ago

Clear
Clear
27 °F
Feels Like 13 °F
N
21
Wind Variable Wind from NW
Gusts 32 mph

Today
High -- | Low -- °F
--% Chance of Precip.
Yesterday
High -- | Low -- °F
Precip. -- in
Pressure 30.34 in
Visibility 10.0 miles
Clouds Clear
Windchill 13 °F
Dew Point 15 °F
Humidity 61%
Rainfall 0.01 in
Snow Depth Not available.
7:03 AM 5:04 PM
Waning Crescent, 0% visible
METAR KHEI 080453Z AUTO 31018G28KT 10SM CLR M03/M09 A3025 RMK AO2 PK WND 32028/0449 SLP273 T10281094
Pressure 30.34 in
Visibility 10.0 miles
Clouds Clear
Windchill 13 °F
Dew Point 15 °F
Humidity 61%
Rainfall 0.01 in
Snow Depth Not available.
7:03 AM 5:04 PM
Waning Crescent, 0% visible
METAR KHEI 080453Z AUTO 31018G28KT 10SM CLR M03/M09 A3025 RMK AO2 PK WND 32028/0449 SLP273 T10281094

10-Day Weather Forecast

Almanac

Astronomy

Feb. 07, 2016 Rise Set
Actual Time
Civil Twilight
Nautical Twilight
Astronomical Twilight
Moon
Length of Visible Light
Length of Day
Tomorrow will be .
, % of the Moon is Illuminated

Today's Extremes

State Highs State Lows

Community

WunderPhotos

Upload Photos

1,891,382 photos uploaded!

WunderBlog® & News

Nearby

Air Quality

  Air Quality AQ Index Pollutant
Not available.

Snow Depth

Station Depth Elevation

Earthquake Activity

City Distance Mag. Time & Date
Minimum magnitude displayed is 2.5.

Coastal Water Temperatures

Place Temperature

Stations

Nearby Weather Stations

Station Location Temp. Windchill Dew Point Humidity Wind Precip. Elev Updated Type
                   

Watches & Warnings

There are currently no watches in effect.